sensor_id;sensor_type;location;lat;lon;timestamp;pressure;altitude;pressure_sealevel;temperature;humidity
72359;BME280;60317;48.880;-0.862;2022-09-09T00:00:25;99653.28;;;20.92;56.37
72359;BME280;60317;48.880;-0.862;2022-09-09T00:02:54;99647.56;;;20.95;56.36
72359;BME280;60317;48.880;-0.862;2022-09-09T00:05:23;99659.31;;;20.94;56.55
72359;BME280;60317;48.880;-0.862;2022-09-09T00:07:53;99656.63;;;20.94;56.59
72359;BME280;60317;48.880;-0.862;2022-09-09T00:10:21;99652.94;;;20.95;56.82
72359;BME280;60317;48.880;-0.862;2022-09-09T00:12:52;99654.16;;;21.01;56.58
72359;BME280;60317;48.880;-0.862;2022-09-09T00:15:21;99641.44;;;21.03;56.55
72359;BME280;60317;48.880;-0.862;2022-09-09T00:17:51;99634.53;;;21.00;56.70
72359;BME280;60317;48.880;-0.862;2022-09-09T00:20:20;99628.00;;;21.03;56.89
72359;BME280;60317;48.880;-0.862;2022-09-09T00:22:47;99618.63;;;21.07;56.60
72359;BME280;60317;48.880;-0.862;2022-09-09T00:25:19;99632.09;;;20.89;56.69
72359;BME280;60317;48.880;-0.862;2022-09-09T00:27:49;99635.97;;;20.68;57.28
72359;BME280;60317;48.880;-0.862;2022-09-09T00:30:17;99628.69;;;20.61;57.39
72359;BME280;60317;48.880;-0.862;2022-09-09T00:32:44;99625.59;;;20.56;57.13
72359;BME280;60317;48.880;-0.862;2022-09-09T00:35:14;99628.28;;;20.56;56.89
72359;BME280;60317;48.880;-0.862;2022-09-09T00:37:42;99637.41;;;20.63;56.87
72359;BME280;60317;48.880;-0.862;2022-09-09T00:40:15;99623.72;;;20.74;56.51
72359;BME280;60317;48.880;-0.862;2022-09-09T00:42:43;99633.56;;;20.83;56.71
72359;BME280;60317;48.880;-0.862;2022-09-09T00:45:15;99636.78;;;20.87;56.58
72359;BME280;60317;48.880;-0.862;2022-09-09T00:47:45;99631.31;;;20.96;56.43
72359;BME280;60317;48.880;-0.862;2022-09-09T00:50:21;99636.50;;;20.98;56.46
72359;BME280;60317;48.880;-0.862;2022-09-09T00:52:54;99638.66;;;20.94;56.63
72359;BME280;60317;48.880;-0.862;2022-09-09T00:55:25;99630.53;;;21.04;56.49
72359;BME280;60317;48.880;-0.862;2022-09-09T00:57:54;99628.31;;;21.00;56.83
72359;BME280;60317;48.880;-0.862;2022-09-09T01:00:22;99622.09;;;20.99;56.95
72359;BME280;60317;48.880;-0.862;2022-09-09T01:02:52;99620.91;;;21.02;56.72
72359;BME280;60317;48.880;-0.862;2022-09-09T01:05:22;99617.88;;;20.96;56.97
72359;BME280;60317;48.880;-0.862;2022-09-09T01:07:51;99631.88;;;20.82;57.27
72359;BME280;60317;48.880;-0.862;2022-09-09T01:10:25;99625.75;;;20.72;56.52
72359;BME280;60317;48.880;-0.862;2022-09-09T01:12:55;99622.13;;;20.63;57.24
72359;BME280;60317;48.880;-0.862;2022-09-09T01:15:22;99626.13;;;20.59;56.60
72359;BME280;60317;48.880;-0.862;2022-09-09T01:17:52;99622.31;;;20.62;57.25
72359;BME280;60317;48.880;-0.862;2022-09-09T01:20:24;99627.13;;;20.76;56.77
72359;BME280;60317;48.880;-0.862;2022-09-09T01:22:57;99632.84;;;20.81;56.74
72359;BME280;60317;48.880;-0.862;2022-09-09T01:25:29;99624.19;;;20.87;56.74
72359;BME280;60317;48.880;-0.862;2022-09-09T01:27:57;99631.78;;;20.92;56.92
72359;BME280;60317;48.880;-0.862;2022-09-09T01:30:25;99626.41;;;20.92;56.81
72359;BME280;60317;48.880;-0.862;2022-09-09T01:32:53;99630.91;;;20.91;57.13
72359;BME280;60317;48.880;-0.862;2022-09-09T01:35:24;99609.44;;;20.91;56.99
72359;BME280;60317;48.880;-0.862;2022-09-09T01:37:54;99625.75;;;20.98;56.88
72359;BME280;60317;48.880;-0.862;2022-09-09T01:40:21;99627.63;;;20.97;57.07
72359;BME280;60317;48.880;-0.862;2022-09-09T01:42:47;99631.00;;;21.00;57.17
72359;BME280;60317;48.880;-0.862;2022-09-09T01:45:15;99627.47;;;20.99;57.02
72359;BME280;60317;48.880;-0.862;2022-09-09T01:47:42;99637.25;;;20.82;57.47
72359;BME280;60317;48.880;-0.862;2022-09-09T01:50:09;99624.50;;;20.66;57.54
72359;BME280;60317;48.880;-0.862;2022-09-09T01:52:36;99631.66;;;20.58;57.50
72359;BME280;60317;48.880;-0.862;2022-09-09T01:55:03;99634.22;;;20.49;57.91
72359;BME280;60317;48.880;-0.862;2022-09-09T01:57:31;99631.28;;;20.53;57.66
72359;BME280;60317;48.880;-0.862;2022-09-09T02:00:01;99646.84;;;20.67;57.19
72359;BME280;60317;48.880;-0.862;2022-09-09T02:02:32;99633.31;;;20.77;57.18
72359;BME280;60317;48.880;-0.862;2022-09-09T02:05:04;99642.44;;;20.84;57.02
72359;BME280;60317;48.880;-0.862;2022-09-09T02:07:37;99638.94;;;20.83;57.13
72359;BME280;60317;48.880;-0.862;2022-09-09T02:10:05;99632.41;;;20.86;57.21
72359;BME280;60317;48.880;-0.862;2022-09-09T02:12:35;99645.06;;;20.93;56.99
72359;BME280;60317;48.880;-0.862;2022-09-09T02:15:03;99637.00;;;20.93;57.24
72359;BME280;60317;48.880;-0.862;2022-09-09T02:17:32;99631.31;;;20.96;57.09
72359;BME280;60317;48.880;-0.862;2022-09-09T02:20:02;99644.03;;;20.94;57.33
72359;BME280;60317;48.880;-0.862;2022-09-09T02:22:29;99637.69;;;20.95;57.24
72359;BME280;60317;48.880;-0.862;2022-09-09T02:24:58;99644.25;;;21.01;57.17
72359;BME280;60317;48.880;-0.862;2022-09-09T02:27:25;99630.56;;;20.86;57.56
72359;BME280;60317;48.880;-0.862;2022-09-09T02:29:53;99642.47;;;20.66;57.70
72359;BME280;60317;48.880;-0.862;2022-09-09T02:32:21;99631.50;;;20.59;57.85
72359;BME280;60317;48.880;-0.862;2022-09-09T02:34:50;99634.34;;;20.58;56.94
72359;BME280;60317;48.880;-0.862;2022-09-09T02:37:18;99626.91;;;20.52;57.58
72359;BME280;60317;48.880;-0.862;2022-09-09T02:39:45;99634.66;;;20.55;57.79
72359;BME280;60317;48.880;-0.862;2022-09-09T02:42:12;99639.09;;;20.64;57.58
72359;BME280;60317;48.880;-0.862;2022-09-09T02:44:38;99635.47;;;20.73;57.64
72359;BME280;60317;48.880;-0.862;2022-09-09T02:47:07;99638.88;;;20.75;57.76
72359;BME280;60317;48.880;-0.862;2022-09-09T02:49:43;99641.91;;;20.80;57.72
72359;BME280;60317;48.880;-0.862;2022-09-09T02:52:14;99644.53;;;20.90;57.48
72359;BME280;60317;48.880;-0.862;2022-09-09T02:54:41;99647.91;;;20.92;57.58
72359;BME280;60317;48.880;-0.862;2022-09-09T02:57:09;99634.78;;;20.89;57.69
72359;BME280;60317;48.880;-0.862;2022-09-09T02:59:36;99639.97;;;20.90;57.69
72359;BME280;60317;48.880;-0.862;2022-09-09T03:02:03;99641.66;;;20.91;57.80
72359;BME280;60317;48.880;-0.862;2022-09-09T03:04:30;99642.72;;;20.98;57.61
72359;BME280;60317;48.880;-0.862;2022-09-09T03:06:56;99638.06;;;21.01;57.41
72359;BME280;60317;48.880;-0.862;2022-09-09T03:09:24;99641.97;;;20.88;58.07
72359;BME280;60317;48.880;-0.862;2022-09-09T03:11:50;99648.38;;;20.69;57.36
72359;BME280;60317;48.880;-0.862;2022-09-09T03:14:16;99638.00;;;20.57;58.41
72359;BME280;60317;48.880;-0.862;2022-09-09T03:16:43;99648.38;;;20.52;58.29
72359;BME280;60317;48.880;-0.862;2022-09-09T03:19:09;99647.13;;;20.46;58.33
72359;BME280;60317;48.880;-0.862;2022-09-09T03:21:36;99653.00;;;20.49;57.76
72359;BME280;60317;48.880;-0.862;2022-09-09T03:24:02;99648.84;;;20.65;57.46
72359;BME280;60317;48.880;-0.862;2022-09-09T03:26:30;99651.28;;;20.76;57.41
72359;BME280;60317;48.880;-0.862;2022-09-09T03:28:57;99647.69;;;20.85;57.18
72359;BME280;60317;48.880;-0.862;2022-09-09T03:31:23;99652.34;;;20.83;57.39
72359;BME280;60317;48.880;-0.862;2022-09-09T03:33:49;99650.38;;;20.85;57.51
72359;BME280;60317;48.880;-0.862;2022-09-09T03:36:16;99646.97;;;20.83;57.63
72359;BME280;60317;48.880;-0.862;2022-09-09T03:38:43;99657.78;;;20.91;57.58
72359;BME280;60317;48.880;-0.862;2022-09-09T03:41:09;99661.16;;;20.93;57.64
72359;BME280;60317;48.880;-0.862;2022-09-09T03:43:37;99650.72;;;20.90;57.56
72359;BME280;60317;48.880;-0.862;2022-09-09T03:46:03;99650.72;;;20.90;57.93
72359;BME280;60317;48.880;-0.862;2022-09-09T03:48:29;99646.28;;;20.99;57.60
72359;BME280;60317;48.880;-0.862;2022-09-09T03:50:56;99653.91;;;20.86;58.05
72359;BME280;60317;48.880;-0.862;2022-09-09T03:53:23;99650.38;;;20.67;57.64
72359;BME280;60317;48.880;-0.862;2022-09-09T03:55:50;99653.28;;;20.56;58.58
72359;BME280;60317;48.880;-0.862;2022-09-09T03:58:17;99650.34;;;20.49;58.68
72359;BME280;60317;48.880;-0.862;2022-09-09T04:00:47;99641.88;;;20.54;58.27
72359;BME280;60317;48.880;-0.862;2022-09-09T04:03:18;99639.31;;;20.70;57.74
72359;BME280;60317;48.880;-0.862;2022-09-09T04:05:45;99641.25;;;20.78;57.73
72359;BME280;60317;48.880;-0.862;2022-09-09T04:08:14;99635.88;;;20.78;58.10
72359;BME280;60317;48.880;-0.862;2022-09-09T04:10:40;99645.00;;;20.85;57.84
72359;BME280;60317;48.880;-0.862;2022-09-09T04:13:06;99655.75;;;20.85;57.97
72359;BME280;60317;48.880;-0.862;2022-09-09T04:15:33;99657.41;;;20.86;58.12
72359;BME280;60317;48.880;-0.862;2022-09-09T04:18:01;99660.25;;;20.85;58.26
72359;BME280;60317;48.880;-0.862;2022-09-09T04:20:27;99658.09;;;20.88;58.13
72359;BME280;60317;48.880;-0.862;2022-09-09T04:22:53;99672.22;;;20.90;58.06
72359;BME280;60317;48.880;-0.862;2022-09-09T04:25:19;99668.53;;;20.91;58.20
72359;BME280;60317;48.880;-0.862;2022-09-09T04:27:46;99663.78;;;20.85;58.66
72359;BME280;60317;48.880;-0.862;2022-09-09T04:30:12;99668.72;;;20.72;58.80
72359;BME280;60317;48.880;-0.862;2022-09-09T04:32:39;99661.63;;;20.53;58.89
72359;BME280;60317;48.880;-0.862;2022-09-09T04:35:06;99667.34;;;20.50;59.05
72359;BME280;60317;48.880;-0.862;2022-09-09T04:37:33;99670.91;;;20.41;59.43
72359;BME280;60317;48.880;-0.862;2022-09-09T04:39:59;99673.38;;;20.52;58.64
72359;BME280;60317;48.880;-0.862;2022-09-09T04:42:26;99664.97;;;20.65;58.55
72359;BME280;60317;48.880;-0.862;2022-09-09T04:44:52;99670.03;;;20.68;58.72
72359;BME280;60317;48.880;-0.862;2022-09-09T04:47:18;99661.50;;;20.72;58.77
72359;BME280;60317;48.880;-0.862;2022-09-09T04:49:45;99674.31;;;20.79;58.55
72359;BME280;60317;48.880;-0.862;2022-09-09T04:52:12;99671.75;;;20.77;58.97
72359;BME280;60317;48.880;-0.862;2022-09-09T04:54:39;99670.00;;;20.86;58.77
72359;BME280;60317;48.880;-0.862;2022-09-09T04:57:05;99669.63;;;20.81;59.01
72359;BME280;60317;48.880;-0.862;2022-09-09T04:59:31;99685.06;;;20.79;59.37
72359;BME280;60317;48.880;-0.862;2022-09-09T05:01:58;99685.28;;;20.85;59.19
72359;BME280;60317;48.880;-0.862;2022-09-09T05:04:24;99682.72;;;20.84;59.13
72359;BME280;60317;48.880;-0.862;2022-09-09T05:06:50;99684.41;;;20.85;59.26
72359;BME280;60317;48.880;-0.862;2022-09-09T05:09:18;99689.50;;;20.70;59.66
72359;BME280;60317;48.880;-0.862;2022-09-09T05:11:44;99682.38;;;20.61;59.68
72359;BME280;60317;48.880;-0.862;2022-09-09T05:14:11;99687.66;;;20.53;59.81
72359;BME280;60317;48.880;-0.862;2022-09-09T05:16:37;99691.38;;;20.42;59.85
72359;BME280;60317;48.880;-0.862;2022-09-09T05:19:04;99679.53;;;20.35;60.34
72359;BME280;60317;48.880;-0.862;2022-09-09T05:21:30;99688.53;;;20.43;60.01
72359;BME280;60317;48.880;-0.862;2022-09-09T05:23:56;99692.41;;;20.59;59.69
72359;BME280;60317;48.880;-0.862;2022-09-09T05:26:24;99694.19;;;20.68;59.42
72359;BME280;60317;48.880;-0.862;2022-09-09T05:28:50;99689.41;;;20.80;59.16
72359;BME280;60317;48.880;-0.862;2022-09-09T05:31:17;99687.81;;;20.87;58.93
72359;BME280;60317;48.880;-0.862;2022-09-09T05:33:44;99695.69;;;20.88;59.19
72359;BME280;60317;48.880;-0.862;2022-09-09T05:36:11;99698.38;;;20.88;59.19
72359;BME280;60317;48.880;-0.862;2022-09-09T05:38:38;99697.72;;;20.86;59.45
72359;BME280;60317;48.880;-0.862;2022-09-09T05:41:05;99706.78;;;20.85;59.47
72359;BME280;60317;48.880;-0.862;2022-09-09T05:43:33;99712.81;;;20.87;59.50
72359;BME280;60317;48.880;-0.862;2022-09-09T05:46:00;99707.13;;;20.90;59.40
72359;BME280;60317;48.880;-0.862;2022-09-09T05:48:27;99714.59;;;20.79;59.22
72359;BME280;60317;48.880;-0.862;2022-09-09T05:50:54;99721.34;;;20.65;58.96
72359;BME280;60317;48.880;-0.862;2022-09-09T05:53:20;99719.25;;;20.59;58.85
72359;BME280;60317;48.880;-0.862;2022-09-09T05:55:46;99728.91;;;20.52;58.96
72359;BME280;60317;48.880;-0.862;2022-09-09T05:58:13;99718.00;;;20.53;59.33
72359;BME280;60317;48.880;-0.862;2022-09-09T06:00:40;99719.50;;;20.65;59.05
72359;BME280;60317;48.880;-0.862;2022-09-09T06:03:08;99714.59;;;20.79;58.76
72359;BME280;60317;48.880;-0.862;2022-09-09T06:05:35;99724.56;;;20.86;58.87
72359;BME280;60317;48.880;-0.862;2022-09-09T06:08:01;99721.28;;;20.92;58.53
72359;BME280;60317;48.880;-0.862;2022-09-09T06:10:28;99723.66;;;20.95;58.67
72359;BME280;60317;48.880;-0.862;2022-09-09T06:12:55;99733.09;;;21.00;58.60
72359;BME280;60317;48.880;-0.862;2022-09-09T06:15:21;99729.44;;;21.09;58.57
72359;BME280;60317;48.880;-0.862;2022-09-09T06:17:49;99735.22;;;21.14;58.45
72359;BME280;60317;48.880;-0.862;2022-09-09T06:20:20;99730.28;;;21.09;58.79
72359;BME280;60317;48.880;-0.862;2022-09-09T06:22:47;99735.53;;;21.11;59.00
72359;BME280;60317;48.880;-0.862;2022-09-09T06:25:13;99727.94;;;21.06;59.06
72359;BME280;60317;48.880;-0.862;2022-09-09T06:27:40;99725.88;;;21.00;59.68
72359;BME280;60317;48.880;-0.862;2022-09-09T06:30:06;99734.47;;;20.86;59.05
72359;BME280;60317;48.880;-0.862;2022-09-09T06:32:33;99740.63;;;20.78;59.16
72359;BME280;60317;48.880;-0.862;2022-09-09T06:35:01;99738.53;;;20.72;61.14
72359;BME280;60317;48.880;-0.862;2022-09-09T06:37:27;99748.88;;;20.67;61.53
72359;BME280;60317;48.880;-0.862;2022-09-09T06:39:54;99747.88;;;20.68;60.85
72359;BME280;60317;48.880;-0.862;2022-09-09T06:42:20;99744.19;;;20.69;62.37
72359;BME280;60317;48.880;-0.862;2022-09-09T06:44:47;99749.94;;;20.74;61.41
72359;BME280;60317;48.880;-0.862;2022-09-09T06:47:13;99750.19;;;20.81;61.43
72359;BME280;60317;48.880;-0.862;2022-09-09T06:49:39;99755.56;;;20.81;61.62
72359;BME280;60317;48.880;-0.862;2022-09-09T06:52:07;99752.03;;;20.80;62.42
72359;BME280;60317;48.880;-0.862;2022-09-09T06:54:35;99762.78;;;20.80;62.58
72359;BME280;60317;48.880;-0.862;2022-09-09T06:57:02;99770.16;;;20.78;63.61
72359;BME280;60317;48.880;-0.862;2022-09-09T06:59:48;99762.09;;;20.78;63.19
72359;BME280;60317;48.880;-0.862;2022-09-09T07:02:14;99772.66;;;20.80;63.34
72359;BME280;60317;48.880;-0.862;2022-09-09T07:04:41;99768.75;;;20.74;63.32
72359;BME280;60317;48.880;-0.862;2022-09-09T07:07:08;99765.91;;;20.76;63.41
72359;BME280;60317;48.880;-0.862;2022-09-09T07:09:35;99773.97;;;20.76;63.30
72359;BME280;60317;48.880;-0.862;2022-09-09T07:12:01;99776.59;;;20.67;63.70
72359;BME280;60317;48.880;-0.862;2022-09-09T07:14:27;99775.19;;;20.63;63.98
72359;BME280;60317;48.880;-0.862;2022-09-09T07:16:54;99776.72;;;20.66;63.58
72359;BME280;60317;48.880;-0.862;2022-09-09T07:19:24;99776.78;;;20.56;63.53
72359;BME280;60317;48.880;-0.862;2022-09-09T07:21:51;99780.16;;;20.58;63.52
72359;BME280;60317;48.880;-0.862;2022-09-09T07:24:19;99777.22;;;20.52;63.64
72359;BME280;60317;48.880;-0.862;2022-09-09T07:26:45;99780.34;;;20.47;63.87
72359;BME280;60317;48.880;-0.862;2022-09-09T07:29:11;99779.94;;;20.42;64.05
72359;BME280;60317;48.880;-0.862;2022-09-09T07:31:43;99779.69;;;20.35;64.22
72359;BME280;60317;48.880;-0.862;2022-09-09T07:34:10;99782.66;;;20.32;63.86
72359;BME280;60317;48.880;-0.862;2022-09-09T07:36:37;99782.88;;;20.48;63.50
72359;BME280;60317;48.880;-0.862;2022-09-09T07:39:04;99789.81;;;20.51;63.70
72359;BME280;60317;48.880;-0.862;2022-09-09T07:41:33;99794.06;;;20.54;63.72
72359;BME280;60317;48.880;-0.862;2022-09-09T07:44:03;99791.19;;;20.55;63.71
72359;BME280;60317;48.880;-0.862;2022-09-09T07:46:30;99793.44;;;20.60;63.91
72359;BME280;60317;48.880;-0.862;2022-09-09T07:48:57;99786.22;;;20.60;63.82
72359;BME280;60317;48.880;-0.862;2022-09-09T07:51:23;99794.97;;;20.62;63.91
72359;BME280;60317;48.880;-0.862;2022-09-09T07:53:51;99788.75;;;20.62;63.79
72359;BME280;60317;48.880;-0.862;2022-09-09T07:56:18;99793.72;;;20.57;64.03
72359;BME280;60317;48.880;-0.862;2022-09-09T07:58:46;99795.13;;;20.61;63.97
72359;BME280;60317;48.880;-0.862;2022-09-09T08:01:14;99805.13;;;20.68;63.80
72359;BME280;60317;48.880;-0.862;2022-09-09T08:03:41;99805.72;;;20.62;63.89
72359;BME280;60317;48.880;-0.862;2022-09-09T08:06:08;99808.59;;;20.51;64.11
72359;BME280;60317;48.880;-0.862;2022-09-09T08:08:35;99803.97;;;20.43;64.21
72359;BME280;60317;48.880;-0.862;2022-09-09T08:11:03;99814.28;;;20.38;63.98
72359;BME280;60317;48.880;-0.862;2022-09-09T08:13:29;99810.41;;;20.23;64.48
72359;BME280;60317;48.880;-0.862;2022-09-09T08:16:04;99823.78;;;20.33;63.78
72359;BME280;60317;48.880;-0.862;2022-09-09T08:18:30;99826.31;;;20.34;63.62
72359;BME280;60317;48.880;-0.862;2022-09-09T08:20:56;99829.09;;;20.42;62.92
72359;BME280;60317;48.880;-0.862;2022-09-09T08:23:23;99825.50;;;20.61;62.51
72359;BME280;60317;48.880;-0.862;2022-09-09T08:25:49;99829.41;;;20.67;62.49
72359;BME280;60317;48.880;-0.862;2022-09-09T08:28:16;99828.59;;;20.84;62.12
72359;BME280;60317;48.880;-0.862;2022-09-09T08:30:42;99827.78;;;21.02;61.80
72359;BME280;60317;48.880;-0.862;2022-09-09T08:33:10;99834.25;;;21.09;62.21
72359;BME280;60317;48.880;-0.862;2022-09-09T08:35:36;99833.34;;;21.18;61.99
72359;BME280;60317;48.880;-0.862;2022-09-09T08:38:03;99840.78;;;21.24;62.05
72359;BME280;60317;48.880;-0.862;2022-09-09T08:40:35;99839.63;;;21.27;62.41
72359;BME280;60317;48.880;-0.862;2022-09-09T08:43:05;99840.56;;;21.17;62.78
72359;BME280;60317;48.880;-0.862;2022-09-09T08:45:33;99838.78;;;21.08;63.26
72359;BME280;60317;48.880;-0.862;2022-09-09T08:48:06;99842.22;;;21.01;63.03
72359;BME280;60317;48.880;-0.862;2022-09-09T08:50:37;99839.06;;;20.87;62.60
72359;BME280;60317;48.880;-0.862;2022-09-09T08:53:05;99847.41;;;20.84;63.00
72359;BME280;60317;48.880;-0.862;2022-09-09T08:55:38;99848.88;;;20.79;63.16
72359;BME280;60317;48.880;-0.862;2022-09-09T08:58:10;99847.03;;;20.79;62.15
72359;BME280;60317;48.880;-0.862;2022-09-09T09:00:41;99855.22;;;20.78;62.97
72359;BME280;60317;48.880;-0.862;2022-09-09T09:03:13;99858.53;;;20.71;63.29
72359;BME280;60317;48.880;-0.862;2022-09-09T09:05:44;99867.22;;;20.56;64.40
72359;BME280;60317;48.880;-0.862;2022-09-09T09:08:14;99877.19;;;20.63;63.80
72359;BME280;60317;48.880;-0.862;2022-09-09T09:10:45;99884.88;;;20.58;63.78
72359;BME280;60317;48.880;-0.862;2022-09-09T09:13:13;99884.88;;;20.58;63.84
72359;BME280;60317;48.880;-0.862;2022-09-09T09:15:40;99886.44;;;20.61;63.67
72359;BME280;60317;48.880;-0.862;2022-09-09T09:18:07;99898.00;;;20.61;63.39
72359;BME280;60317;48.880;-0.862;2022-09-09T09:20:38;99897.75;;;20.55;63.78
72359;BME280;60317;48.880;-0.862;2022-09-09T09:23:12;99904.78;;;20.56;63.67
72359;BME280;60317;48.880;-0.862;2022-09-09T09:25:42;99900.75;;;20.79;63.13
72359;BME280;60317;48.880;-0.862;2022-09-09T09:28:10;99905.63;;;20.93;62.82
72359;BME280;60317;48.880;-0.862;2022-09-09T09:30:39;99907.28;;;20.94;63.40
72359;BME280;60317;48.880;-0.862;2022-09-09T09:33:08;99911.69;;;20.95;63.82
72359;BME280;60317;48.880;-0.862;2022-09-09T09:35:38;99908.38;;;21.02;64.13
72359;BME280;60317;48.880;-0.862;2022-09-09T09:38:13;99901.03;;;21.04;64.20
72359;BME280;60317;48.880;-0.862;2022-09-09T09:41:01;99907.78;;;21.08;64.60
72359;BME280;60317;48.880;-0.862;2022-09-09T09:43:29;99911.84;;;21.12;64.68
72359;BME280;60317;48.880;-0.862;2022-09-09T09:45:56;99909.59;;;21.17;64.64
72359;BME280;60317;48.880;-0.862;2022-09-09T09:48:42;99916.94;;;21.15;64.63
72359;BME280;60317;48.880;-0.862;2022-09-09T09:51:09;99919.00;;;21.03;65.23
72359;BME280;60317;48.880;-0.862;2022-09-09T09:53:38;99922.72;;;20.92;65.79
72359;BME280;60317;48.880;-0.862;2022-09-09T09:56:05;99927.00;;;20.85;65.08
72359;BME280;60317;48.880;-0.862;2022-09-09T09:58:32;99931.97;;;20.80;64.77
72359;BME280;60317;48.880;-0.862;2022-09-09T10:01:00;99932.97;;;20.79;64.85
72359;BME280;60317;48.880;-0.862;2022-09-09T10:03:27;99940.06;;;20.70;64.98
72359;BME280;60317;48.880;-0.862;2022-09-09T10:05:54;99932.72;;;20.72;64.77
72359;BME280;60317;48.880;-0.862;2022-09-09T10:08:21;99942.09;;;20.59;65.29
72359;BME280;60317;48.880;-0.862;2022-09-09T10:10:59;99952.38;;;20.63;64.78
72359;BME280;60317;48.880;-0.862;2022-09-09T10:13:29;99946.44;;;20.69;63.58
72359;BME280;60317;48.880;-0.862;2022-09-09T10:16:00;99945.78;;;20.58;64.54
72359;BME280;60317;48.880;-0.862;2022-09-09T10:18:36;99960.31;;;20.65;64.87
72359;BME280;60317;48.880;-0.862;2022-09-09T10:21:08;99969.03;;;20.67;65.14
72359;BME280;60317;48.880;-0.862;2022-09-09T10:23:42;99954.47;;;20.79;64.94
72359;BME280;60317;48.880;-0.862;2022-09-09T10:26:16;99955.84;;;20.83;64.97
72359;BME280;60317;48.880;-0.862;2022-09-09T10:28:56;99958.72;;;20.72;65.33
72359;BME280;60317;48.880;-0.862;2022-09-09T10:31:29;99959.03;;;20.49;66.39
72359;BME280;60317;48.880;-0.862;2022-09-09T10:34:00;99957.50;;;20.57;66.16
72359;BME280;60317;48.880;-0.862;2022-09-09T10:36:31;99972.66;;;20.29;66.99
72359;BME280;60317;48.880;-0.862;2022-09-09T10:38:57;99961.63;;;20.51;66.65
72359;BME280;60317;48.880;-0.862;2022-09-09T10:41:33;99972.28;;;20.70;66.49
72359;BME280;60317;48.880;-0.862;2022-09-09T10:44:10;99973.72;;;20.75;66.49
72359;BME280;60317;48.880;-0.862;2022-09-09T10:46:42;99976.81;;;20.70;66.18
72359;BME280;60317;48.880;-0.862;2022-09-09T10:49:14;99974.03;;;20.62;66.49
72359;BME280;60317;48.880;-0.862;2022-09-09T10:51:49;99972.91;;;20.64;66.30
72359;BME280;60317;48.880;-0.862;2022-09-09T10:54:22;99966.81;;;20.62;66.89
72359;BME280;60317;48.880;-0.862;2022-09-09T10:56:54;99966.09;;;20.60;67.50
72359;BME280;60317;48.880;-0.862;2022-09-09T10:59:23;99967.78;;;20.71;65.94
72359;BME280;60317;48.880;-0.862;2022-09-09T11:01:52;99966.63;;;20.73;66.53
72359;BME280;60317;48.880;-0.862;2022-09-09T11:04:22;99965.19;;;20.79;65.21
72359;BME280;60317;48.880;-0.862;2022-09-09T11:06:50;99964.50;;;20.77;65.74
72359;BME280;60317;48.880;-0.862;2022-09-09T11:09:19;99975.50;;;20.84;64.99
72359;BME280;60317;48.880;-0.862;2022-09-09T11:11:49;99976.94;;;20.78;66.56
72359;BME280;60317;48.880;-0.862;2022-09-09T11:14:19;99980.56;;;20.87;67.10
72359;BME280;60317;48.880;-0.862;2022-09-09T11:16:49;99976.09;;;21.05;67.21
72359;BME280;60317;48.880;-0.862;2022-09-09T11:19:21;99977.81;;;21.06;66.66
72359;BME280;60317;48.880;-0.862;2022-09-09T11:21:50;99990.47;;;20.86;67.83
72359;BME280;60317;48.880;-0.862;2022-09-09T11:24:19;99986.94;;;20.86;67.80
72359;BME280;60317;48.880;-0.862;2022-09-09T11:26:47;99980.13;;;20.91;67.87
72359;BME280;60317;48.880;-0.862;2022-09-09T11:29:21;99991.00;;;21.00;67.68
72359;BME280;60317;48.880;-0.862;2022-09-09T11:32:00;99994.34;;;21.02;67.29
72359;BME280;60317;48.880;-0.862;2022-09-09T11:34:36;100001.03;;;20.97;67.58
72359;BME280;60317;48.880;-0.862;2022-09-09T11:37:13;99995.97;;;20.85;67.93
72359;BME280;60317;48.880;-0.862;2022-09-09T11:39:45;100000.13;;;20.79;67.69
72359;BME280;60317;48.880;-0.862;2022-09-09T11:42:17;100006.16;;;20.81;67.54
72359;BME280;60317;48.880;-0.862;2022-09-09T11:44:45;100017.34;;;20.86;67.34
72359;BME280;60317;48.880;-0.862;2022-09-09T11:47:16;100017.22;;;20.78;67.09
72359;BME280;60317;48.880;-0.862;2022-09-09T11:49:45;100022.47;;;20.70;67.31
72359;BME280;60317;48.880;-0.862;2022-09-09T11:52:11;100006.94;;;20.64;67.92
72359;BME280;60317;48.880;-0.862;2022-09-09T11:54:44;100010.03;;;20.69;67.86
72359;BME280;60317;48.880;-0.862;2022-09-09T11:57:16;100000.41;;;20.76;66.43
72359;BME280;60317;48.880;-0.862;2022-09-09T11:59:51;100007.06;;;20.72;67.55
72359;BME280;60317;48.880;-0.862;2022-09-09T12:02:19;99997.56;;;20.78;66.66
72359;BME280;60317;48.880;-0.862;2022-09-09T12:04:49;100001.66;;;20.82;66.53
72359;BME280;60317;48.880;-0.862;2022-09-09T12:07:30;99998.00;;;20.73;67.38
72359;BME280;60317;48.880;-0.862;2022-09-09T12:09:58;100007.63;;;20.76;68.20
72359;BME280;60317;48.880;-0.862;2022-09-09T12:12:28;100003.09;;;20.76;67.04
72359;BME280;60317;48.880;-0.862;2022-09-09T12:14:57;100006.50;;;20.68;67.31
72359;BME280;60317;48.880;-0.862;2022-09-09T12:17:24;100004.75;;;20.87;66.54
72359;BME280;60317;48.880;-0.862;2022-09-09T12:19:59;100010.69;;;20.81;67.14
72359;BME280;60317;48.880;-0.862;2022-09-09T12:22:27;100018.81;;;20.71;67.35
72359;BME280;60317;48.880;-0.862;2022-09-09T12:24:58;100014.44;;;20.60;67.75
72359;BME280;60317;48.880;-0.862;2022-09-09T12:27:28;100024.31;;;20.69;67.22
72359;BME280;60317;48.880;-0.862;2022-09-09T12:30:00;100013.25;;;20.82;66.93
72359;BME280;60317;48.880;-0.862;2022-09-09T12:32:27;100020.28;;;20.93;66.65
72359;BME280;60317;48.880;-0.862;2022-09-09T12:34:54;100020.41;;;20.91;66.89
72359;BME280;60317;48.880;-0.862;2022-09-09T12:37:24;100015.75;;;20.93;67.10
72359;BME280;60317;48.880;-0.862;2022-09-09T12:39:54;100026.50;;;20.93;66.91
72359;BME280;60317;48.880;-0.862;2022-09-09T12:42:21;100028.91;;;20.96;66.66
72359;BME280;60317;48.880;-0.862;2022-09-09T12:44:52;100021.59;;;20.79;66.93
72359;BME280;60317;48.880;-0.862;2022-09-09T12:47:20;100032.66;;;20.66;67.15
72359;BME280;60317;48.880;-0.862;2022-09-09T12:49:54;100031.25;;;20.62;66.58
72359;BME280;60317;48.880;-0.862;2022-09-09T12:52:23;100032.81;;;20.65;65.68
72359;BME280;60317;48.880;-0.862;2022-09-09T12:54:50;100036.34;;;20.65;64.75